Avis, Pennsylvania
Current Conditions -  °F | °C
As of 2:54 PM on Thursday 23 Oct 2014 (Local Time) from KIPT Reporting Station
Overcast Overcast  
Wind Chill: 58°   Ceiling: 3300
Heat Index: 58°   Visibility: 10mi
Dew Point: 43°   Wind: 17mph
Humidity: 58%   Direction: 310°NW
Pressure: 29.88"   Gusts: 22mph
Location:  41.18°N, 77.31°W
Report Text: KIPT 231854Z 31015G19KT 10SM OVC033 14/06 A2988 RMK AO2 SLP117 T01440061
Loading
Personal Weather Stations






























Interactive Weather Map New forecast layout! Learn more

10-Day Weather Forecast

Advertisements
Track Severe Weather on mobile